sensor_id;sensor_type;location;lat;lon;timestamp;P1;durP1;ratioP1;P2;durP2;ratioP2
69532;SDS011;56729;52.036;5.332;2022-08-16T00:01:05;13.45;;;11.15;;
69532;SDS011;56729;52.036;5.332;2022-08-16T00:02:07;13.73;;;10.17;;
69532;SDS011;56729;52.036;5.332;2022-08-16T00:03:13;14.10;;;10.50;;
69532;SDS011;56729;52.036;5.332;2022-08-16T00:04:17;14.05;;;10.35;;
69532;SDS011;56729;52.036;5.332;2022-08-16T00:05:22;12.15;;;10.07;;
69532;SDS011;56729;52.036;5.332;2022-08-16T00:06:27;11.73;;;9.32;;
69532;SDS011;56729;52.036;5.332;2022-08-16T00:07:29;12.45;;;10.05;;
69532;SDS011;56729;52.036;5.332;2022-08-16T00:08:31;12.63;;;9.32;;
69532;SDS011;56729;52.036;5.332;2022-08-16T00:09:37;11.85;;;8.70;;
69532;SDS011;56729;52.036;5.332;2022-08-16T00:10:42;15.57;;;10.68;;
69532;SDS011;56729;52.036;5.332;2022-08-16T00:11:44;10.93;;;9.68;;
69532;SDS011;56729;52.036;5.332;2022-08-16T00:12:53;17.13;;;10.40;;
69532;SDS011;56729;52.036;5.332;2022-08-16T00:13:55;13.77;;;10.48;;
69532;SDS011;56729;52.036;5.332;2022-08-16T00:14:58;13.15;;;10.45;;
69532;SDS011;56729;52.036;5.332;2022-08-16T00:16:02;13.73;;;9.73;;
69532;SDS011;56729;52.036;5.332;2022-08-16T00:17:24;14.10;;;10.15;;
69532;SDS011;56729;52.036;5.332;2022-08-16T00:18:28;13.15;;;10.52;;
69532;SDS011;56729;52.036;5.332;2022-08-16T00:19:32;16.02;;;9.18;;
69532;SDS011;56729;52.036;5.332;2022-08-16T00:20:42;13.70;;;10.25;;
69532;SDS011;56729;52.036;5.332;2022-08-16T00:21:46;14.88;;;9.80;;
69532;SDS011;56729;52.036;5.332;2022-08-16T00:22:56;13.07;;;9.52;;
69532;SDS011;56729;52.036;5.332;2022-08-16T00:23:59;13.20;;;9.63;;
69532;SDS011;56729;52.036;5.332;2022-08-16T00:25:06;13.25;;;10.48;;
69532;SDS011;56729;52.036;5.332;2022-08-16T00:26:10;15.30;;;10.07;;
69532;SDS011;56729;52.036;5.332;2022-08-16T00:27:32;13.00;;;10.70;;
69532;SDS011;56729;52.036;5.332;2022-08-16T00:28:37;14.93;;;11.57;;
69532;SDS011;56729;52.036;5.332;2022-08-16T00:29:39;18.45;;;11.50;;
69532;SDS011;56729;52.036;5.332;2022-08-16T00:30:42;14.07;;;11.73;;
69532;SDS011;56729;52.036;5.332;2022-08-16T00:31:46;16.88;;;13.40;;
69532;SDS011;56729;52.036;5.332;2022-08-16T00:33:01;16.83;;;12.90;;
69532;SDS011;56729;52.036;5.332;2022-08-16T00:34:04;14.02;;;12.00;;
69532;SDS011;56729;52.036;5.332;2022-08-16T00:35:07;16.20;;;12.20;;
69532;SDS011;56729;52.036;5.332;2022-08-16T00:36:16;15.40;;;12.45;;
69532;SDS011;56729;52.036;5.332;2022-08-16T00:37:18;15.68;;;12.63;;
69532;SDS011;56729;52.036;5.332;2022-08-16T00:38:25;16.67;;;13.40;;
69532;SDS011;56729;52.036;5.332;2022-08-16T00:39:44;19.98;;;12.80;;
69532;SDS011;56729;52.036;5.332;2022-08-16T00:40:49;15.52;;;12.07;;
69532;SDS011;56729;52.036;5.332;2022-08-16T00:41:54;17.95;;;12.07;;
69532;SDS011;56729;52.036;5.332;2022-08-16T00:42:56;15.40;;;12.40;;
69532;SDS011;56729;52.036;5.332;2022-08-16T00:43:58;17.42;;;12.23;;
69532;SDS011;56729;52.036;5.332;2022-08-16T00:45:05;16.60;;;11.93;;
69532;SDS011;56729;52.036;5.332;2022-08-16T00:46:23;16.83;;;12.03;;
69532;SDS011;56729;52.036;5.332;2022-08-16T00:47:37;16.42;;;11.95;;
69532;SDS011;56729;52.036;5.332;2022-08-16T00:48:50;14.90;;;12.60;;
69532;SDS011;56729;52.036;5.332;2022-08-16T00:49:54;14.40;;;11.38;;
69532;SDS011;56729;52.036;5.332;2022-08-16T00:50:57;12.27;;;10.55;;
69532;SDS011;56729;52.036;5.332;2022-08-16T00:52:02;13.95;;;10.80;;
69532;SDS011;56729;52.036;5.332;2022-08-16T00:53:25;12.38;;;10.10;;
69532;SDS011;56729;52.036;5.332;2022-08-16T00:54:31;13.23;;;10.48;;
69532;SDS011;56729;52.036;5.332;2022-08-16T00:55:33;20.30;;;11.70;;
69532;SDS011;56729;52.036;5.332;2022-08-16T00:56:39;15.02;;;11.65;;
69532;SDS011;56729;52.036;5.332;2022-08-16T00:57:59;11.90;;;9.50;;
69532;SDS011;56729;52.036;5.332;2022-08-16T00:59:02;12.60;;;10.57;;
69532;SDS011;56729;52.036;5.332;2022-08-16T01:00:06;12.98;;;10.32;;
69532;SDS011;56729;52.036;5.332;2022-08-16T01:01:20;12.65;;;10.20;;
69532;SDS011;56729;52.036;5.332;2022-08-16T01:02:22;13.27;;;10.68;;
69532;SDS011;56729;52.036;5.332;2022-08-16T01:03:33;15.98;;;10.77;;
69532;SDS011;56729;52.036;5.332;2022-08-16T01:04:36;14.95;;;10.70;;
69532;SDS011;56729;52.036;5.332;2022-08-16T01:05:40;16.73;;;11.40;;
69532;SDS011;56729;52.036;5.332;2022-08-16T01:06:43;14.75;;;12.00;;
69532;SDS011;56729;52.036;5.332;2022-08-16T01:08:03;15.07;;;11.05;;
69532;SDS011;56729;52.036;5.332;2022-08-16T01:09:28;14.63;;;10.10;;
69532;SDS011;56729;52.036;5.332;2022-08-16T01:10:37;13.07;;;10.20;;
69532;SDS011;56729;52.036;5.332;2022-08-16T01:11:43;14.05;;;10.77;;
69532;SDS011;56729;52.036;5.332;2022-08-16T01:12:54;13.85;;;10.65;;
69532;SDS011;56729;52.036;5.332;2022-08-16T01:14:02;15.50;;;10.60;;
69532;SDS011;56729;52.036;5.332;2022-08-16T01:15:13;14.45;;;10.52;;
69532;SDS011;56729;52.036;5.332;2022-08-16T01:16:18;13.63;;;10.30;;
69532;SDS011;56729;52.036;5.332;2022-08-16T01:17:26;13.88;;;10.70;;
69532;SDS011;56729;52.036;5.332;2022-08-16T01:18:44;11.60;;;9.85;;
69532;SDS011;56729;52.036;5.332;2022-08-16T01:19:56;13.27;;;10.68;;
69532;SDS011;56729;52.036;5.332;2022-08-16T01:21:09;14.07;;;10.83;;
69532;SDS011;56729;52.036;5.332;2022-08-16T01:24:10;12.10;;;10.02;;
69532;SDS011;56729;52.036;5.332;2022-08-16T01:25:41;14.18;;;11.35;;
69532;SDS011;56729;52.036;5.332;2022-08-16T01:27:02;14.05;;;11.32;;
69532;SDS011;56729;52.036;5.332;2022-08-16T01:28:16;13.73;;;11.93;;
69532;SDS011;56729;52.036;5.332;2022-08-16T01:29:23;12.43;;;10.75;;
69532;SDS011;56729;52.036;5.332;2022-08-16T01:30:51;12.02;;;10.82;;
69532;SDS011;56729;52.036;5.332;2022-08-16T01:31:58;14.00;;;11.50;;
69532;SDS011;56729;52.036;5.332;2022-08-16T01:33:02;15.63;;;11.38;;
69532;SDS011;56729;52.036;5.332;2022-08-16T01:34:16;13.43;;;11.60;;
69532;SDS011;56729;52.036;5.332;2022-08-16T01:35:26;14.45;;;10.60;;
69532;SDS011;56729;52.036;5.332;2022-08-16T01:37:11;18.42;;;11.70;;
69532;SDS011;56729;52.036;5.332;2022-08-16T01:38:18;12.23;;;10.93;;
69532;SDS011;56729;52.036;5.332;2022-08-16T01:39:23;15.32;;;11.57;;
69532;SDS011;56729;52.036;5.332;2022-08-16T01:40:28;14.73;;;11.50;;
69532;SDS011;56729;52.036;5.332;2022-08-16T01:41:31;16.00;;;11.15;;
69532;SDS011;56729;52.036;5.332;2022-08-16T01:42:43;15.38;;;11.00;;
69532;SDS011;56729;52.036;5.332;2022-08-16T01:43:49;13.80;;;12.30;;
69532;SDS011;56729;52.036;5.332;2022-08-16T01:44:55;14.45;;;12.02;;
69532;SDS011;56729;52.036;5.332;2022-08-16T01:45:58;13.87;;;11.60;;
69532;SDS011;56729;52.036;5.332;2022-08-16T01:47:22;17.08;;;11.63;;
69532;SDS011;56729;52.036;5.332;2022-08-16T01:48:25;14.35;;;11.38;;
69532;SDS011;56729;52.036;5.332;2022-08-16T01:49:31;14.15;;;11.55;;
69532;SDS011;56729;52.036;5.332;2022-08-16T01:50:59;15.65;;;12.60;;
69532;SDS011;56729;52.036;5.332;2022-08-16T01:52:17;12.88;;;11.40;;
69532;SDS011;56729;52.036;5.332;2022-08-16T01:53:53;15.48;;;11.40;;
69532;SDS011;56729;52.036;5.332;2022-08-16T01:55:01;14.30;;;12.10;;
69532;SDS011;56729;52.036;5.332;2022-08-16T01:56:07;16.30;;;11.75;;
69532;SDS011;56729;52.036;5.332;2022-08-16T01:57:26;12.98;;;11.50;;
69532;SDS011;56729;52.036;5.332;2022-08-16T01:58:32;13.43;;;11.60;;
69532;SDS011;56729;52.036;5.332;2022-08-16T01:59:38;16.67;;;11.70;;
69532;SDS011;56729;52.036;5.332;2022-08-16T02:00:44;15.10;;;11.73;;
69532;SDS011;56729;52.036;5.332;2022-08-16T02:01:48;16.63;;;11.93;;
69532;SDS011;56729;52.036;5.332;2022-08-16T02:03:01;15.85;;;11.32;;
69532;SDS011;56729;52.036;5.332;2022-08-16T02:04:03;16.88;;;11.95;;
69532;SDS011;56729;52.036;5.332;2022-08-16T02:05:14;18.75;;;12.13;;
69532;SDS011;56729;52.036;5.332;2022-08-16T02:06:16;16.65;;;12.82;;
69532;SDS011;56729;52.036;5.332;2022-08-16T02:07:35;14.38;;;12.15;;
69532;SDS011;56729;52.036;5.332;2022-08-16T02:08:46;18.02;;;13.35;;
69532;SDS011;56729;52.036;5.332;2022-08-16T02:09:51;17.57;;;12.67;;
69532;SDS011;56729;52.036;5.332;2022-08-16T02:10:58;21.90;;;14.70;;
69532;SDS011;56729;52.036;5.332;2022-08-16T02:12:00;16.13;;;14.23;;
69532;SDS011;56729;52.036;5.332;2022-08-16T02:13:22;18.90;;;15.15;;
69532;SDS011;56729;52.036;5.332;2022-08-16T02:14:34;18.40;;;14.13;;
69532;SDS011;56729;52.036;5.332;2022-08-16T02:15:41;19.60;;;15.27;;
69532;SDS011;56729;52.036;5.332;2022-08-16T02:16:45;18.83;;;14.55;;
69532;SDS011;56729;52.036;5.332;2022-08-16T02:17:47;17.95;;;15.50;;
69532;SDS011;56729;52.036;5.332;2022-08-16T02:18:53;21.75;;;15.77;;
69532;SDS011;56729;52.036;5.332;2022-08-16T02:19:55;18.65;;;15.88;;
69532;SDS011;56729;52.036;5.332;2022-08-16T02:21:01;17.20;;;14.13;;
69532;SDS011;56729;52.036;5.332;2022-08-16T02:22:04;17.77;;;13.82;;
69532;SDS011;56729;52.036;5.332;2022-08-16T02:23:31;20.70;;;13.98;;
69532;SDS011;56729;52.036;5.332;2022-08-16T02:24:34;19.50;;;15.55;;
69532;SDS011;56729;52.036;5.332;2022-08-16T02:25:42;15.75;;;14.02;;
69532;SDS011;56729;52.036;5.332;2022-08-16T02:26:54;17.88;;;14.40;;
69532;SDS011;56729;52.036;5.332;2022-08-16T02:27:58;17.55;;;15.02;;
69532;SDS011;56729;52.036;5.332;2022-08-16T02:29:00;19.20;;;14.98;;
69532;SDS011;56729;52.036;5.332;2022-08-16T02:30:03;20.70;;;15.18;;
69532;SDS011;56729;52.036;5.332;2022-08-16T02:31:10;23.20;;;13.70;;
69532;SDS011;56729;52.036;5.332;2022-08-16T02:32:13;19.93;;;14.47;;
69532;SDS011;56729;52.036;5.332;2022-08-16T02:33:37;21.45;;;14.68;;
69532;SDS011;56729;52.036;5.332;2022-08-16T02:34:50;18.67;;;14.05;;
69532;SDS011;56729;52.036;5.332;2022-08-16T02:35:57;18.80;;;14.13;;
69532;SDS011;56729;52.036;5.332;2022-08-16T02:37:02;18.95;;;14.20;;
69532;SDS011;56729;52.036;5.332;2022-08-16T02:38:06;20.77;;;15.32;;
69532;SDS011;56729;52.036;5.332;2022-08-16T02:39:09;18.88;;;14.80;;
69532;SDS011;56729;52.036;5.332;2022-08-16T02:40:15;18.02;;;14.73;;
69532;SDS011;56729;52.036;5.332;2022-08-16T02:41:18;19.90;;;16.17;;
69532;SDS011;56729;52.036;5.332;2022-08-16T02:42:22;20.73;;;14.60;;
69532;SDS011;56729;52.036;5.332;2022-08-16T02:43:25;19.47;;;14.13;;
69532;SDS011;56729;52.036;5.332;2022-08-16T02:44:34;17.58;;;14.57;;
69532;SDS011;56729;52.036;5.332;2022-08-16T02:45:42;18.83;;;14.18;;
69532;SDS011;56729;52.036;5.332;2022-08-16T02:46:44;18.40;;;14.65;;
69532;SDS011;56729;52.036;5.332;2022-08-16T02:47:52;18.08;;;14.88;;
69532;SDS011;56729;52.036;5.332;2022-08-16T02:49:15;19.38;;;14.45;;
69532;SDS011;56729;52.036;5.332;2022-08-16T02:50:20;21.90;;;15.10;;
69532;SDS011;56729;52.036;5.332;2022-08-16T02:51:42;20.45;;;15.95;;
69532;SDS011;56729;52.036;5.332;2022-08-16T02:52:46;20.90;;;17.13;;
69532;SDS011;56729;52.036;5.332;2022-08-16T02:53:50;20.90;;;17.10;;
69532;SDS011;56729;52.036;5.332;2022-08-16T02:54:53;20.47;;;16.17;;
69532;SDS011;56729;52.036;5.332;2022-08-16T02:55:57;21.80;;;16.90;;
69532;SDS011;56729;52.036;5.332;2022-08-16T02:57:01;26.23;;;17.77;;
69532;SDS011;56729;52.036;5.332;2022-08-16T02:58:04;25.45;;;16.95;;
69532;SDS011;56729;52.036;5.332;2022-08-16T02:59:06;23.38;;;17.42;;
69532;SDS011;56729;52.036;5.332;2022-08-16T03:00:15;22.30;;;16.55;;
69532;SDS011;56729;52.036;5.332;2022-08-16T03:01:37;23.63;;;15.57;;
69532;SDS011;56729;52.036;5.332;2022-08-16T03:02:45;19.77;;;16.17;;
69532;SDS011;56729;52.036;5.332;2022-08-16T03:03:56;20.90;;;15.80;;
69532;SDS011;56729;52.036;5.332;2022-08-16T03:05:20;20.48;;;15.60;;
69532;SDS011;56729;52.036;5.332;2022-08-16T03:06:22;21.80;;;15.73;;
69532;SDS011;56729;52.036;5.332;2022-08-16T03:07:50;21.35;;;16.17;;
69532;SDS011;56729;52.036;5.332;2022-08-16T03:08:52;22.02;;;15.85;;
69532;SDS011;56729;52.036;5.332;2022-08-16T03:09:57;19.05;;;14.75;;
69532;SDS011;56729;52.036;5.332;2022-08-16T03:11:02;20.25;;;15.40;;
69532;SDS011;56729;52.036;5.332;2022-08-16T03:12:04;17.52;;;14.60;;
69532;SDS011;56729;52.036;5.332;2022-08-16T03:13:07;17.15;;;15.18;;
69532;SDS011;56729;52.036;5.332;2022-08-16T03:14:13;22.58;;;14.15;;
69532;SDS011;56729;52.036;5.332;2022-08-16T03:15:28;20.60;;;15.35;;
69532;SDS011;56729;52.036;5.332;2022-08-16T03:16:30;20.63;;;15.95;;
69532;SDS011;56729;52.036;5.332;2022-08-16T03:17:40;19.13;;;15.10;;
69532;SDS011;56729;52.036;5.332;2022-08-16T03:18:55;18.15;;;14.05;;
69532;SDS011;56729;52.036;5.332;2022-08-16T03:19:57;20.92;;;15.10;;
69532;SDS011;56729;52.036;5.332;2022-08-16T03:21:08;22.55;;;17.80;;
69532;SDS011;56729;52.036;5.332;2022-08-16T03:22:14;21.60;;;15.80;;
69532;SDS011;56729;52.036;5.332;2022-08-16T03:23:28;16.55;;;14.75;;
69532;SDS011;56729;52.036;5.332;2022-08-16T03:24:36;23.50;;;16.70;;
69532;SDS011;56729;52.036;5.332;2022-08-16T03:25:38;20.48;;;15.82;;
69532;SDS011;56729;52.036;5.332;2022-08-16T03:26:46;20.48;;;15.85;;
69532;SDS011;56729;52.036;5.332;2022-08-16T03:27:51;18.40;;;15.75;;
69532;SDS011;56729;52.036;5.332;2022-08-16T03:28:56;19.40;;;15.90;;
69532;SDS011;56729;52.036;5.332;2022-08-16T03:30:05;19.42;;;16.77;;
69532;SDS011;56729;52.036;5.332;2022-08-16T03:31:31;21.85;;;15.93;;
69532;SDS011;56729;52.036;5.332;2022-08-16T03:32:41;17.52;;;15.73;;
69532;SDS011;56729;52.036;5.332;2022-08-16T03:33:44;19.27;;;15.93;;
69532;SDS011;56729;52.036;5.332;2022-08-16T03:34:52;17.40;;;14.90;;
69532;SDS011;56729;52.036;5.332;2022-08-16T03:35:54;17.63;;;14.63;;
69532;SDS011;56729;52.036;5.332;2022-08-16T03:37:23;19.42;;;15.40;;
69532;SDS011;56729;52.036;5.332;2022-08-16T03:38:26;15.90;;;14.27;;
69532;SDS011;56729;52.036;5.332;2022-08-16T03:39:37;17.80;;;15.32;;
69532;SDS011;56729;52.036;5.332;2022-08-16T03:40:44;20.37;;;16.33;;
69532;SDS011;56729;52.036;5.332;2022-08-16T03:41:49;21.60;;;16.30;;
69532;SDS011;56729;52.036;5.332;2022-08-16T03:43:02;17.70;;;15.30;;
69532;SDS011;56729;52.036;5.332;2022-08-16T03:44:29;17.10;;;15.18;;
69532;SDS011;56729;52.036;5.332;2022-08-16T03:45:45;22.48;;;15.63;;
69532;SDS011;56729;52.036;5.332;2022-08-16T03:46:47;18.92;;;14.75;;
69532;SDS011;56729;52.036;5.332;2022-08-16T03:48:03;21.17;;;15.88;;
69532;SDS011;56729;52.036;5.332;2022-08-16T03:49:07;18.23;;;14.75;;
69532;SDS011;56729;52.036;5.332;2022-08-16T03:50:14;18.30;;;14.38;;
69532;SDS011;56729;52.036;5.332;2022-08-16T03:51:26;20.13;;;15.32;;
69532;SDS011;56729;52.036;5.332;2022-08-16T03:52:34;17.97;;;15.07;;
69532;SDS011;56729;52.036;5.332;2022-08-16T03:53:37;18.38;;;14.30;;
69532;SDS011;56729;52.036;5.332;2022-08-16T03:54:40;16.15;;;13.50;;
69532;SDS011;56729;52.036;5.332;2022-08-16T03:55:54;18.38;;;14.75;;
69532;SDS011;56729;52.036;5.332;2022-08-16T03:56:57;21.70;;;15.75;;
69532;SDS011;56729;52.036;5.332;2022-08-16T03:58:01;17.05;;;15.13;;
69532;SDS011;56729;52.036;5.332;2022-08-16T03:59:05;22.50;;;15.00;;
69532;SDS011;56729;52.036;5.332;2022-08-16T04:00:20;17.45;;;14.50;;
69532;SDS011;56729;52.036;5.332;2022-08-16T04:01:43;16.45;;;13.95;;
69532;SDS011;56729;52.036;5.332;2022-08-16T04:02:54;17.92;;;15.27;;
69532;SDS011;56729;52.036;5.332;2022-08-16T04:03:57;18.37;;;15.80;;
69532;SDS011;56729;52.036;5.332;2022-08-16T04:05:01;18.73;;;16.70;;
69532;SDS011;56729;52.036;5.332;2022-08-16T04:06:04;20.60;;;16.75;;
69532;SDS011;56729;52.036;5.332;2022-08-16T04:07:09;24.33;;;17.02;;
69532;SDS011;56729;52.036;5.332;2022-08-16T04:08:14;24.10;;;17.35;;
69532;SDS011;56729;52.036;5.332;2022-08-16T04:09:26;23.80;;;16.90;;
69532;SDS011;56729;52.036;5.332;2022-08-16T04:10:28;20.67;;;15.52;;
69532;SDS011;56729;52.036;5.332;2022-08-16T04:11:38;20.08;;;15.18;;
69532;SDS011;56729;52.036;5.332;2022-08-16T04:12:40;19.65;;;15.10;;
69532;SDS011;56729;52.036;5.332;2022-08-16T04:13:56;18.33;;;14.18;;
69532;SDS011;56729;52.036;5.332;2022-08-16T04:15:13;17.87;;;13.87;;
69532;SDS011;56729;52.036;5.332;2022-08-16T04:16:29;16.92;;;13.80;;
69532;SDS011;56729;52.036;5.332;2022-08-16T04:17:47;22.65;;;16.17;;
69532;SDS011;56729;52.036;5.332;2022-08-16T04:18:49;16.45;;;14.40;;
69532;SDS011;56729;52.036;5.332;2022-08-16T04:19:52;21.02;;;16.77;;
69532;SDS011;56729;52.036;5.332;2022-08-16T04:20:56;20.13;;;15.60;;
69532;SDS011;56729;52.036;5.332;2022-08-16T04:22:02;23.05;;;17.55;;
69532;SDS011;56729;52.036;5.332;2022-08-16T04:23:16;20.15;;;16.38;;
69532;SDS011;56729;52.036;5.332;2022-08-16T04:24:19;21.92;;;17.48;;
69532;SDS011;56729;52.036;5.332;2022-08-16T04:25:28;20.25;;;16.92;;
69532;SDS011;56729;52.036;5.332;2022-08-16T04:26:33;22.23;;;17.10;;
69532;SDS011;56729;52.036;5.332;2022-08-16T04:27:37;20.35;;;17.30;;
69532;SDS011;56729;52.036;5.332;2022-08-16T04:28:54;17.90;;;15.50;;
69532;SDS011;56729;52.036;5.332;2022-08-16T04:30:17;22.65;;;17.55;;
69532;SDS011;56729;52.036;5.332;2022-08-16T04:31:35;25.65;;;17.20;;
69532;SDS011;56729;52.036;5.332;2022-08-16T04:32:44;23.13;;;18.25;;
69532;SDS011;56729;52.036;5.332;2022-08-16T04:33:51;24.20;;;17.05;;
69532;SDS011;56729;52.036;5.332;2022-08-16T04:34:55;22.02;;;16.85;;
69532;SDS011;56729;52.036;5.332;2022-08-16T04:35:58;20.42;;;16.15;;
69532;SDS011;56729;52.036;5.332;2022-08-16T04:37:03;18.90;;;16.05;;
69532;SDS011;56729;52.036;5.332;2022-08-16T04:38:09;20.73;;;14.93;;
69532;SDS011;56729;52.036;5.332;2022-08-16T04:39:24;18.85;;;16.85;;
69532;SDS011;56729;52.036;5.332;2022-08-16T04:40:47;20.05;;;17.15;;
69532;SDS011;56729;52.036;5.332;2022-08-16T04:41:51;24.30;;;18.48;;
69532;SDS011;56729;52.036;5.332;2022-08-16T04:42:58;22.67;;;18.15;;
69532;SDS011;56729;52.036;5.332;2022-08-16T04:44:03;23.10;;;17.50;;
69532;SDS011;56729;52.036;5.332;2022-08-16T04:45:26;23.38;;;18.33;;
69532;SDS011;56729;52.036;5.332;2022-08-16T04:46:40;24.13;;;18.48;;
69532;SDS011;56729;52.036;5.332;2022-08-16T04:48:02;24.25;;;18.55;;
69532;SDS011;56729;52.036;5.332;2022-08-16T04:49:12;20.08;;;16.85;;
69532;SDS011;56729;52.036;5.332;2022-08-16T04:50:16;22.43;;;17.57;;
69532;SDS011;56729;52.036;5.332;2022-08-16T04:51:30;19.08;;;15.95;;
69532;SDS011;56729;52.036;5.332;2022-08-16T04:52:36;23.02;;;16.67;;
69532;SDS011;56729;52.036;5.332;2022-08-16T04:53:39;20.88;;;17.67;;
69532;SDS011;56729;52.036;5.332;2022-08-16T04:54:42;22.75;;;18.75;;
69532;SDS011;56729;52.036;5.332;2022-08-16T04:55:43;21.70;;;17.92;;
69532;SDS011;56729;52.036;5.332;2022-08-16T04:56:46;21.75;;;18.55;;
69532;SDS011;56729;52.036;5.332;2022-08-16T04:57:50;21.48;;;17.98;;
69532;SDS011;56729;52.036;5.332;2022-08-16T04:58:55;21.55;;;17.35;;
69532;SDS011;56729;52.036;5.332;2022-08-16T04:59:58;22.52;;;17.23;;
69532;SDS011;56729;52.036;5.332;2022-08-16T05:01:20;22.93;;;17.73;;
69532;SDS011;56729;52.036;5.332;2022-08-16T05:02:42;21.33;;;17.55;;
69532;SDS011;56729;52.036;5.332;2022-08-16T05:03:46;24.83;;;17.20;;
69532;SDS011;56729;52.036;5.332;2022-08-16T05:05:11;25.30;;;17.67;;
69532;SDS011;56729;52.036;5.332;2022-08-16T05:06:18;24.88;;;17.98;;
69532;SDS011;56729;52.036;5.332;2022-08-16T05:07:41;21.13;;;17.45;;
69532;SDS011;56729;52.036;5.332;2022-08-16T05:08:58;23.02;;;17.80;;
69532;SDS011;56729;52.036;5.332;2022-08-16T05:10:04;24.35;;;18.05;;
69532;SDS011;56729;52.036;5.332;2022-08-16T05:11:23;23.13;;;18.85;;
69532;SDS011;56729;52.036;5.332;2022-08-16T05:12:32;24.05;;;18.10;;
69532;SDS011;56729;52.036;5.332;2022-08-16T05:13:37;22.80;;;19.03;;
69532;SDS011;56729;52.036;5.332;2022-08-16T05:14:46;27.45;;;17.05;;
69532;SDS011;56729;52.036;5.332;2022-08-16T05:16:07;22.60;;;18.30;;
69532;SDS011;56729;52.036;5.332;2022-08-16T05:17:20;22.13;;;17.95;;
69532;SDS011;56729;52.036;5.332;2022-08-16T05:18:26;21.77;;;16.58;;
69532;SDS011;56729;52.036;5.332;2022-08-16T05:19:30;23.95;;;17.27;;
69532;SDS011;56729;52.036;5.332;2022-08-16T05:20:47;21.05;;;16.98;;
69532;SDS011;56729;52.036;5.332;2022-08-16T05:22:02;21.15;;;17.95;;
69532;SDS011;56729;52.036;5.332;2022-08-16T05:23:05;22.38;;;19.30;;
69532;SDS011;56729;52.036;5.332;2022-08-16T05:24:09;24.42;;;18.77;;
69532;SDS011;56729;52.036;5.332;2022-08-16T05:25:13;21.60;;;17.17;;
69532;SDS011;56729;52.036;5.332;2022-08-16T05:26:20;23.52;;;18.70;;
69532;SDS011;56729;52.036;5.332;2022-08-16T05:27:23;22.75;;;18.77;;
69532;SDS011;56729;52.036;5.332;2022-08-16T05:28:26;26.15;;;19.48;;
69532;SDS011;56729;52.036;5.332;2022-08-16T05:29:38;25.25;;;18.40;;
69532;SDS011;56729;52.036;5.332;2022-08-16T05:31:00;26.48;;;18.92;;
69532;SDS011;56729;52.036;5.332;2022-08-16T05:32:04;23.80;;;18.70;;
69532;SDS011;56729;52.036;5.332;2022-08-16T05:33:26;23.63;;;18.10;;
69532;SDS011;56729;52.036;5.332;2022-08-16T05:34:30;22.38;;;18.75;;
69532;SDS011;56729;52.036;5.332;2022-08-16T05:35:32;20.02;;;17.75;;
69532;SDS011;56729;52.036;5.332;2022-08-16T05:36:43;23.97;;;18.67;;
69532;SDS011;56729;52.036;5.332;2022-08-16T05:37:46;22.50;;;19.65;;
69532;SDS011;56729;52.036;5.332;2022-08-16T05:38:49;25.13;;;17.75;;
69532;SDS011;56729;52.036;5.332;2022-08-16T05:39:52;22.70;;;18.52;;
69532;SDS011;56729;52.036;5.332;2022-08-16T05:40:56;22.30;;;18.63;;
69532;SDS011;56729;52.036;5.332;2022-08-16T05:42:05;22.25;;;18.45;;
69532;SDS011;56729;52.036;5.332;2022-08-16T05:43:10;22.65;;;19.25;;
69532;SDS011;56729;52.036;5.332;2022-08-16T05:44:15;21.77;;;17.65;;
69532;SDS011;56729;52.036;5.332;2022-08-16T05:45:28;22.42;;;18.83;;
69532;SDS011;56729;52.036;5.332;2022-08-16T05:46:33;22.60;;;18.48;;
69532;SDS011;56729;52.036;5.332;2022-08-16T05:47:48;20.20;;;17.67;;
69532;SDS011;56729;52.036;5.332;2022-08-16T05:49:14;22.73;;;17.73;;
69532;SDS011;56729;52.036;5.332;2022-08-16T05:50:23;26.55;;;18.85;;
69532;SDS011;56729;52.036;5.332;2022-08-16T05:51:35;21.40;;;17.50;;
69532;SDS011;56729;52.036;5.332;2022-08-16T05:52:40;24.10;;;18.35;;
69532;SDS011;56729;52.036;5.332;2022-08-16T05:53:46;20.70;;;17.50;;
69532;SDS011;56729;52.036;5.332;2022-08-16T05:54:49;20.33;;;16.08;;
69532;SDS011;56729;52.036;5.332;2022-08-16T05:56:04;22.60;;;17.10;;
69532;SDS011;56729;52.036;5.332;2022-08-16T05:57:09;19.52;;;16.63;;
69532;SDS011;56729;52.036;5.332;2022-08-16T05:58:13;19.98;;;17.17;;
69532;SDS011;56729;52.036;5.332;2022-08-16T05:59:35;23.13;;;17.40;;
69532;SDS011;56729;52.036;5.332;2022-08-16T06:00:38;26.52;;;18.42;;
69532;SDS011;56729;52.036;5.332;2022-08-16T06:01:42;20.80;;;17.67;;
69532;SDS011;56729;52.036;5.332;2022-08-16T06:02:46;23.63;;;17.73;;
69532;SDS011;56729;52.036;5.332;2022-08-16T06:04:10;19.33;;;16.45;;
69532;SDS011;56729;52.036;5.332;2022-08-16T06:05:34;22.50;;;19.13;;
69532;SDS011;56729;52.036;5.332;2022-08-16T06:06:42;23.40;;;18.90;;
69532;SDS011;56729;52.036;5.332;2022-08-16T06:07:57;25.75;;;19.17;;
69532;SDS011;56729;52.036;5.332;2022-08-16T06:09:05;24.60;;;19.92;;
69532;SDS011;56729;52.036;5.332;2022-08-16T06:10:09;29.45;;;19.30;;
69532;SDS011;56729;52.036;5.332;2022-08-16T06:11:13;25.70;;;19.67;;
69532;SDS011;56729;52.036;5.332;2022-08-16T06:12:20;24.48;;;18.52;;
69532;SDS011;56729;52.036;5.332;2022-08-16T06:13:30;19.38;;;16.48;;
69532;SDS011;56729;52.036;5.332;2022-08-16T06:14:33;26.05;;;19.05;;
69532;SDS011;56729;52.036;5.332;2022-08-16T06:15:36;24.13;;;18.90;;
69532;SDS011;56729;52.036;5.332;2022-08-16T06:16:41;21.25;;;18.02;;
69532;SDS011;56729;52.036;5.332;2022-08-16T06:17:43;22.90;;;18.38;;
69532;SDS011;56729;52.036;5.332;2022-08-16T06:18:51;22.13;;;19.83;;
69532;SDS011;56729;52.036;5.332;2022-08-16T06:19:54;31.70;;;25.13;;
69532;SDS011;56729;52.036;5.332;2022-08-16T06:20:56;29.60;;;22.13;;
69532;SDS011;56729;52.036;5.332;2022-08-16T06:22:01;29.30;;;21.73;;
69532;SDS011;56729;52.036;5.332;2022-08-16T06:23:05;26.77;;;22.75;;
69532;SDS011;56729;52.036;5.332;2022-08-16T06:24:29;32.67;;;23.45;;
69532;SDS011;56729;52.036;5.332;2022-08-16T06:25:52;26.88;;;23.02;;
69532;SDS011;56729;52.036;5.332;2022-08-16T06:26:57;28.90;;;21.10;;
69532;SDS011;56729;52.036;5.332;2022-08-16T06:28:09;28.00;;;22.40;;
69532;SDS011;56729;52.036;5.332;2022-08-16T06:29:31;32.67;;;24.00;;
69532;SDS011;56729;52.036;5.332;2022-08-16T06:30:34;27.50;;;21.77;;
69532;SDS011;56729;52.036;5.332;2022-08-16T06:31:44;26.42;;;20.17;;
69532;SDS011;56729;52.036;5.332;2022-08-16T06:32:50;26.98;;;20.45;;
69532;SDS011;56729;52.036;5.332;2022-08-16T06:33:55;34.50;;;24.63;;
69532;SDS011;56729;52.036;5.332;2022-08-16T06:34:59;33.15;;;25.63;;
69532;SDS011;56729;52.036;5.332;2022-08-16T06:36:04;30.52;;;24.30;;
69532;SDS011;56729;52.036;5.332;2022-08-16T06:37:09;29.05;;;24.30;;
69532;SDS011;56729;52.036;5.332;2022-08-16T06:38:13;27.48;;;23.05;;
69532;SDS011;56729;52.036;5.332;2022-08-16T06:39:36;27.42;;;23.38;;
69532;SDS011;56729;52.036;5.332;2022-08-16T06:41:01;30.55;;;24.00;;
69532;SDS011;56729;52.036;5.332;2022-08-16T06:42:04;33.22;;;26.35;;
69532;SDS011;56729;52.036;5.332;2022-08-16T06:43:23;35.25;;;27.73;;
69532;SDS011;56729;52.036;5.332;2022-08-16T06:44:35;27.98;;;23.08;;
69532;SDS011;56729;52.036;5.332;2022-08-16T06:45:40;33.90;;;23.80;;